createdAt,value
2018-02-04T00:00:41.103Z,1.80
2018-02-04T00:03:08.561Z,1.70
2018-02-04T00:05:36.803Z,1.80
2018-02-04T00:08:04.319Z,1.80
2018-02-04T00:10:32.551Z,1.90
2018-02-04T00:13:00.069Z,1.90
2018-02-04T00:15:27.559Z,1.90
2018-02-04T00:17:55.057Z,1.90
2018-02-04T00:20:22.521Z,1.90
2018-02-04T00:22:50.773Z,1.90
2018-02-04T00:25:18.250Z,1.90
2018-02-04T00:27:45.708Z,1.80
2018-02-04T00:30:13.239Z,1.80
2018-02-04T00:32:40.727Z,1.80
2018-02-04T00:35:08.188Z,1.80
2018-02-04T00:37:35.696Z,1.90
2018-02-04T00:40:03.203Z,1.80
2018-02-04T00:42:30.717Z,1.80
2018-02-04T00:44:58.218Z,1.80
2018-02-04T00:47:25.728Z,1.90
2018-02-04T00:49:53.190Z,1.80
2018-02-04T00:52:20.665Z,1.90
2018-02-04T00:54:48.159Z,1.90
2018-02-04T00:57:15.634Z,1.90
2018-02-04T00:59:43.966Z,1.90
2018-02-04T01:02:11.464Z,1.90
2018-02-04T01:04:39.736Z,1.90
2018-02-04T01:07:07.171Z,1.90
2018-02-04T01:09:34.796Z,1.90
2018-02-04T01:12:02.207Z,1.90
2018-02-04T01:14:29.655Z,1.90
2018-02-04T01:16:57.111Z,2.00
2018-02-04T01:19:24.610Z,2.00
2018-02-04T01:21:52.823Z,1.80
2018-02-04T01:24:20.319Z,1.80
2018-02-04T01:26:47.758Z,1.70
2018-02-04T01:29:15.230Z,1.60
2018-02-04T01:31:42.738Z,1.60
2018-02-04T01:34:10.191Z,1.60
2018-02-04T01:36:37.667Z,1.60
2018-02-04T01:39:05.143Z,1.60
2018-02-04T01:41:32.622Z,1.50
2018-02-04T01:44:00.074Z,1.50
2018-02-04T01:46:27.830Z,1.50
2018-02-04T01:48:55.299Z,1.60
2018-02-04T01:51:22.756Z,1.50
2018-02-04T01:53:50.215Z,1.60
2018-02-04T01:56:17.692Z,1.60
2018-02-04T01:58:45.910Z,1.50
2018-02-04T02:01:13.592Z,1.50
2018-02-04T02:03:41.055Z,1.60
2018-02-04T02:06:08.528Z,1.60
2018-02-04T02:08:36.475Z,1.60
2018-02-04T02:11:03.927Z,1.60
2018-02-04T02:13:31.383Z,1.50
2018-02-04T02:15:58.846Z,1.50
2018-02-04T02:18:26.339Z,1.50
2018-02-04T02:20:54.609Z,1.20
2018-02-04T02:23:22.073Z,1.20
2018-02-04T02:25:49.533Z,1.10
2018-02-04T02:28:17.005Z,1.20
2018-02-04T02:30:45.283Z,1.20
2018-02-04T02:33:13.558Z,1.20
2018-02-04T02:35:41.765Z,1.20
2018-02-04T02:38:09.225Z,1.20
2018-02-04T02:40:36.703Z,1.20
2018-02-04T02:43:04.219Z,1.10
2018-02-04T02:45:32.463Z,1.10
2018-02-04T02:47:59.981Z,1.10
2018-02-04T02:50:27.384Z,1.10
2018-02-04T02:52:55.919Z,1.10
2018-02-04T02:55:23.375Z,1.10
2018-02-04T02:57:50.829Z,1.20
2018-02-04T03:00:18.295Z,1.10
2018-02-04T03:02:45.766Z,1.20
2018-02-04T03:05:13.204Z,1.20
2018-02-04T03:07:40.675Z,1.20
2018-02-04T03:10:08.197Z,1.20
2018-02-04T03:12:36.447Z,1.20
2018-02-04T03:15:04.299Z,1.20
2018-02-04T03:17:31.762Z,1.20
2018-02-04T03:19:59.254Z,1.20
2018-02-04T03:22:27.503Z,1.30
2018-02-04T03:24:54.964Z,1.20
2018-02-04T03:27:22.424Z,1.10
2018-02-04T03:29:49.886Z,1.10
2018-02-04T03:32:17.445Z,1.10
2018-02-04T03:34:44.905Z,1.10
2018-02-04T03:37:12.371Z,1.20
2018-02-04T03:39:40.820Z,1.20
2018-02-04T03:42:08.280Z,1.10
2018-02-04T03:44:35.762Z,1.20
2018-02-04T03:47:03.208Z,1.00
2018-02-04T03:49:30.670Z,1.00
2018-02-04T03:51:58.141Z,0.90
2018-02-04T03:54:25.605Z,0.90
2018-02-04T03:56:53.139Z,0.90
2018-02-04T03:59:20.621Z,0.90
2018-02-04T04:01:48.830Z,1.10
2018-02-04T04:04:16.311Z,1.10
2018-02-04T04:06:43.775Z,1.10
2018-02-04T04:09:11.229Z,1.10
2018-02-04T04:11:38.985Z,1.00
2018-02-04T04:14:06.447Z,1.00
2018-02-04T04:16:33.903Z,1.00
2018-02-04T04:19:01.374Z,1.00
2018-02-04T04:21:28.943Z,0.90
2018-02-04T04:23:56.416Z,0.90
2018-02-04T04:26:23.865Z,0.90
2018-02-04T04:28:51.324Z,0.80
2018-02-04T04:31:18.782Z,0.80
2018-02-04T04:33:46.252Z,0.70
2018-02-04T04:36:13.715Z,0.70
2018-02-04T04:38:41.954Z,0.90
2018-02-04T04:41:09.414Z,0.80
2018-02-04T04:43:36.904Z,0.90
2018-02-04T04:46:04.359Z,1.00
2018-02-04T04:48:31.816Z,1.00
2018-02-04T04:50:59.282Z,1.00
2018-02-04T04:53:27.514Z,1.00
2018-02-04T04:55:54.970Z,1.00
2018-02-04T04:58:22.473Z,0.90
2018-02-04T05:00:50.705Z,0.90
2018-02-04T05:03:18.147Z,0.90
2018-02-04T05:05:45.880Z,0.90
2018-02-04T05:08:14.110Z,0.80
2018-02-04T05:10:41.556Z,0.80
2018-02-04T05:13:09.038Z,0.90
2018-02-04T05:15:36.514Z,0.90
2018-02-04T05:18:04.000Z,0.90
2018-02-04T05:20:32.245Z,0.90
2018-02-04T05:22:59.710Z,0.90
2018-02-04T05:25:27.165Z,0.90
2018-02-04T05:27:54.630Z,0.90
2018-02-04T05:30:22.067Z,0.90
2018-02-04T05:32:49.522Z,0.80
2018-02-04T05:35:16.982Z,0.80
2018-02-04T05:37:44.432Z,0.90
2018-02-04T05:40:11.884Z,0.90
2018-02-04T05:42:39.353Z,0.90
2018-02-04T05:45:06.809Z,0.90
2018-02-04T05:47:34.260Z,0.90
2018-02-04T05:50:01.731Z,0.90
2018-02-04T05:52:29.207Z,0.90
2018-02-04T05:54:56.643Z,1.00
2018-02-04T05:57:24.139Z,1.00
2018-02-04T05:59:52.356Z,1.00
2018-02-04T06:02:19.822Z,0.90
2018-02-04T06:04:47.331Z,1.00
2018-02-04T06:07:15.558Z,1.00
2018-02-04T06:09:43.061Z,1.00
2018-02-04T06:12:10.553Z,1.00
2018-02-04T06:14:38.333Z,1.10
2018-02-04T06:17:05.791Z,1.10
2018-02-04T06:19:33.303Z,1.10
2018-02-04T06:22:01.540Z,1.10
2018-02-04T06:24:28.987Z,1.10
2018-02-04T06:26:56.468Z,1.00
2018-02-04T06:29:23.927Z,1.10
2018-02-04T06:31:51.407Z,1.10
2018-02-04T06:34:19.746Z,1.10
2018-02-04T06:36:47.242Z,1.10
2018-02-04T06:39:14.675Z,1.20
2018-02-04T06:41:42.235Z,1.20
2018-02-04T06:44:09.716Z,1.30
2018-02-04T06:46:37.157Z,1.20
2018-02-04T06:49:04.656Z,1.20
2018-02-04T06:51:32.893Z,1.10
2018-02-04T06:54:00.347Z,1.10
2018-02-04T06:56:27.876Z,1.20
2018-02-04T06:58:55.351Z,1.10
2018-02-04T07:01:22.838Z,1.10
2018-02-04T07:03:50.311Z,1.10
2018-02-04T07:06:18.743Z,1.20
2018-02-04T07:08:46.299Z,1.10
2018-02-04T07:11:13.784Z,1.10
2018-02-04T07:13:41.533Z,1.20
2018-02-04T07:16:09.043Z,1.10
2018-02-04T07:18:37.534Z,1.10
2018-02-04T07:21:05.011Z,1.10
2018-02-04T07:23:32.495Z,1.20
2018-02-04T07:25:59.948Z,1.10
2018-02-04T07:28:27.409Z,1.10
2018-02-04T07:30:54.862Z,1.10
2018-02-04T07:33:22.329Z,1.10
2018-02-04T07:35:49.818Z,1.10
2018-02-04T07:38:17.266Z,1.10
2018-02-04T07:40:44.934Z,1.00
2018-02-04T07:43:12.367Z,0.90
2018-02-04T07:45:39.808Z,0.80
2018-02-04T07:48:07.279Z,0.80
2018-02-04T07:50:34.712Z,0.70
2018-02-04T07:53:02.170Z,0.70
2018-02-04T07:55:29.640Z,0.70
2018-02-04T07:57:57.138Z,0.70
2018-02-04T08:00:24.590Z,0.70
2018-02-04T08:02:52.058Z,0.80
2018-02-04T08:05:19.620Z,1.00
2018-02-04T08:07:47.080Z,1.30
2018-02-04T08:10:14.563Z,1.40
2018-02-04T08:12:42.079Z,1.40
2018-02-04T08:15:09.525Z,1.60
2018-02-04T08:17:37.007Z,1.60
2018-02-04T08:20:04.446Z,1.50
2018-02-04T08:22:31.903Z,1.60
2018-02-04T08:24:59.503Z,1.60
2018-02-04T08:27:27.735Z,1.70
2018-02-04T08:29:55.234Z,1.60
2018-02-04T08:32:22.766Z,1.70
2018-02-04T08:34:50.239Z,1.70
2018-02-04T08:37:17.724Z,1.80
2018-02-04T08:39:45.275Z,1.80
2018-02-04T08:42:13.495Z,1.80
2018-02-04T08:44:40.947Z,1.70
2018-02-04T08:47:08.721Z,1.80
2018-02-04T08:49:36.739Z,1.80
2018-02-04T08:52:05.219Z,1.70
2018-02-04T08:54:32.756Z,1.70
2018-02-04T08:57:00.235Z,1.70
2018-02-04T08:59:27.699Z,1.70
2018-02-04T09:01:56.226Z,1.50
2018-02-04T09:04:23.689Z,1.50
2018-02-04T09:06:51.162Z,1.50
2018-02-04T09:09:18.645Z,1.50
2018-02-04T09:11:46.091Z,1.50
2018-02-04T09:14:13.565Z,1.50
2018-02-04T09:16:41.909Z,1.40
2018-02-04T09:19:09.371Z,1.40
2018-02-04T09:21:36.853Z,1.40
2018-02-04T09:24:04.313Z,1.40
2018-02-04T09:26:31.778Z,1.40
2018-02-04T09:28:59.249Z,1.40
2018-02-04T09:31:27.495Z,1.30
2018-02-04T09:33:55.091Z,1.30
2018-02-04T09:36:23.381Z,1.40
2018-02-04T09:38:50.811Z,1.40
2018-02-04T09:41:19.054Z,1.40
2018-02-04T09:43:46.518Z,1.40
2018-02-04T09:46:13.975Z,1.40
2018-02-04T09:48:41.454Z,1.30
2018-02-04T09:51:11.396Z,1.40
2018-02-04T09:53:39.672Z,1.50
2018-02-04T09:56:07.895Z,1.70
2018-02-04T09:58:35.385Z,1.70
2018-02-04T10:01:02.861Z,1.70
2018-02-04T10:03:31.085Z,1.70
2018-02-04T10:05:58.594Z,1.70
2018-02-04T10:08:27.033Z,1.60
2018-02-04T10:10:54.483Z,1.60
2018-02-04T10:13:21.943Z,1.60
2018-02-04T10:15:49.412Z,1.70
2018-02-04T10:18:16.855Z,1.70
2018-02-04T10:20:44.496Z,1.80
2018-02-04T10:23:11.979Z,1.80
2018-02-04T10:25:39.436Z,2.00
2018-02-04T10:28:06.900Z,2.20
2018-02-04T10:30:34.385Z,2.40
2018-02-04T10:33:02.199Z,2.50
2018-02-04T10:35:29.659Z,2.60
2018-02-04T10:37:57.480Z,2.80
2018-02-04T10:40:25.447Z,3.00
2018-02-04T10:42:52.907Z,3.10
2018-02-04T10:45:20.356Z,3.10
2018-02-04T10:47:47.819Z,3.00
2018-02-04T10:50:15.278Z,2.90
2018-02-04T10:52:42.760Z,2.80
2018-02-04T10:55:11.002Z,2.70
2018-02-04T10:57:38.499Z,2.70
2018-02-04T11:00:06.594Z,2.60
2018-02-04T11:02:34.026Z,2.50
2018-02-04T11:05:02.258Z,2.30
2018-02-04T11:07:29.737Z,2.30
2018-02-04T11:09:57.193Z,2.20
2018-02-04T11:12:24.803Z,2.00
2018-02-04T11:14:52.478Z,2.00
2018-02-04T11:17:20.242Z,2.10
2018-02-04T11:19:47.688Z,2.20
2018-02-04T11:22:15.146Z,2.40
2018-02-04T11:24:42.644Z,2.70
2018-02-04T11:27:10.087Z,3.10
2018-02-04T11:29:38.386Z,3.30
2018-02-04T11:32:17.675Z,3.40
2018-02-04T11:34:45.250Z,3.10
2018-02-04T11:37:12.734Z,3.00
2018-02-04T11:39:40.206Z,2.80
2018-02-04T11:42:07.855Z,2.60
2018-02-04T11:44:35.323Z,2.50
2018-02-04T11:47:03.204Z,2.50
2018-02-04T11:49:30.938Z,2.40
2018-02-04T11:51:58.523Z,2.30
2018-02-04T11:54:26.191Z,2.30
2018-02-04T11:56:54.207Z,2.20
2018-02-04T11:59:21.711Z,2.20
2018-02-04T12:01:49.364Z,2.30
2018-02-04T12:04:16.937Z,2.40
2018-02-04T12:06:44.391Z,2.60
2018-02-04T12:09:11.837Z,2.70
2018-02-04T12:11:39.639Z,2.80
2018-02-04T12:14:07.859Z,2.70
2018-02-04T12:16:35.515Z,2.60
2018-02-04T12:19:03.027Z,2.70
2018-02-04T12:21:30.593Z,2.70
2018-02-04T12:23:59.583Z,2.60
2018-02-04T12:26:27.867Z,2.60
2018-02-04T12:28:56.811Z,2.60
2018-02-04T12:31:24.263Z,2.70
2018-02-04T12:33:51.857Z,2.80
2018-02-04T12:36:19.396Z,2.80
2018-02-04T12:38:47.688Z,2.50
2018-02-04T12:41:15.243Z,2.40
2018-02-04T12:43:42.700Z,2.40
2018-02-04T12:46:10.287Z,2.40
2018-02-04T12:48:37.899Z,2.50
2018-02-04T12:51:05.376Z,2.50
2018-02-04T12:53:32.919Z,2.50
2018-02-04T12:56:00.423Z,2.60
2018-02-04T12:58:27.891Z,2.60
2018-02-04T13:00:56.139Z,2.50
2018-02-04T13:03:23.619Z,2.50
2018-02-04T13:05:51.183Z,2.50
2018-02-04T13:08:18.804Z,2.50
2018-02-04T13:10:46.491Z,2.50
2018-02-04T13:13:14.359Z,2.50
2018-02-04T13:15:41.841Z,2.50
2018-02-04T13:18:09.295Z,2.40
2018-02-04T13:20:36.957Z,2.50
2018-02-04T13:23:04.526Z,2.60
2018-02-04T13:25:34.207Z,2.50
2018-02-04T13:28:02.580Z,2.30
2018-02-04T13:30:30.037Z,2.30
2018-02-04T13:32:57.522Z,2.20
2018-02-04T13:35:24.949Z,2.20
2018-02-04T13:37:52.420Z,2.10
2018-02-04T13:40:19.915Z,2.30
2018-02-04T13:42:48.159Z,2.70
2018-02-04T13:45:15.623Z,2.70
2018-02-04T13:47:43.069Z,2.80
2018-02-04T13:50:10.546Z,2.80
2018-02-04T13:52:38.009Z,2.80
2018-02-04T13:55:06.274Z,2.80
2018-02-04T13:57:33.733Z,2.80
2018-02-04T14:00:01.252Z,2.50
2018-02-04T14:02:29.595Z,2.40
2018-02-04T14:04:57.866Z,2.20
2018-02-04T14:07:26.109Z,2.30
2018-02-04T14:09:53.564Z,2.30
2018-02-04T14:12:21.137Z,2.20
2018-02-04T14:14:48.603Z,2.30
2018-02-04T14:17:16.194Z,2.40
2018-02-04T14:19:44.451Z,2.50
2018-02-04T14:22:11.969Z,2.50
2018-02-04T14:24:39.460Z,2.60
2018-02-04T14:27:06.918Z,2.70
2018-02-04T14:29:34.379Z,2.60
2018-02-04T14:32:01.896Z,2.70
2018-02-04T14:34:29.370Z,2.60
2018-02-04T14:36:56.855Z,2.50
2018-02-04T14:39:24.320Z,2.40
2018-02-04T14:41:52.978Z,2.30
2018-02-04T14:44:20.423Z,2.30
2018-02-04T14:46:47.926Z,2.20
2018-02-04T14:49:16.204Z,2.10
2018-02-04T14:51:44.430Z,2.20
2018-02-04T14:54:11.976Z,2.20
2018-02-04T14:56:39.415Z,2.20
2018-02-04T14:59:06.963Z,2.20
2018-02-04T15:01:35.182Z,2.00
2018-02-04T15:04:02.681Z,2.00
2018-02-04T15:06:30.163Z,2.10
2018-02-04T15:08:57.648Z,2.10
2018-02-04T15:11:25.127Z,2.10
2018-02-04T15:13:52.616Z,2.10
2018-02-04T15:16:20.081Z,2.10
2018-02-04T15:18:47.515Z,2.20
2018-02-04T15:21:14.983Z,2.10
2018-02-04T15:23:42.445Z,2.10
2018-02-04T15:26:10.006Z,2.00
2018-02-04T15:28:37.463Z,2.00
2018-02-04T15:31:04.947Z,1.90
2018-02-04T15:33:33.217Z,1.90
2018-02-04T15:36:01.426Z,2.00
2018-02-04T15:38:28.921Z,1.90
2018-02-04T15:40:56.397Z,1.90
2018-02-04T15:43:23.837Z,2.00
2018-02-04T15:45:51.310Z,2.20
2018-02-04T15:48:18.767Z,2.20
2018-02-04T15:50:46.226Z,2.20
2018-02-04T15:53:13.708Z,2.30
2018-02-04T15:55:41.983Z,2.30
2018-02-04T15:58:10.623Z,2.30
2018-02-04T16:00:38.067Z,2.30
2018-02-04T16:03:05.905Z,2.30
2018-02-04T16:05:34.134Z,2.40
2018-02-04T16:08:01.627Z,2.30
2018-02-04T16:10:29.914Z,2.40
2018-02-04T16:12:58.126Z,2.40
2018-02-04T16:15:25.600Z,2.40
2018-02-04T16:17:53.071Z,2.40
2018-02-04T16:20:20.550Z,2.30
2018-02-04T16:22:48.787Z,2.20
2018-02-04T16:25:16.237Z,2.10
2018-02-04T16:27:43.739Z,2.10
2018-02-04T16:30:11.973Z,1.90
2018-02-04T16:32:39.470Z,1.90
2018-02-04T16:35:06.925Z,1.90
2018-02-04T16:37:34.383Z,2.00
2018-02-04T16:40:01.881Z,2.00
2018-02-04T16:42:30.071Z,2.00
2018-02-04T16:44:57.554Z,2.00
2018-02-04T16:47:25.029Z,2.00
2018-02-04T16:49:52.470Z,2.00
2018-02-04T16:52:19.943Z,2.00
2018-02-04T16:54:47.400Z,2.00
2018-02-04T16:57:14.860Z,2.00
2018-02-04T16:59:42.317Z,2.00
2018-02-04T17:02:10.183Z,1.90
2018-02-04T17:04:37.648Z,2.00
2018-02-04T17:07:05.098Z,2.00
2018-02-04T17:09:32.564Z,2.00
2018-02-04T17:12:00.050Z,2.00
2018-02-04T17:14:28.263Z,2.00
2018-02-04T17:16:55.717Z,2.00
2018-02-04T17:19:23.179Z,2.00
2018-02-04T17:21:50.677Z,1.90
2018-02-04T17:24:18.130Z,1.80
2018-02-04T17:26:45.583Z,1.80
2018-02-04T17:29:13.043Z,1.80
2018-02-04T17:31:40.510Z,1.80
2018-02-04T17:34:08.752Z,1.80
2018-02-04T17:36:37.040Z,1.80
2018-02-04T17:39:05.403Z,1.90
2018-02-04T17:41:32.879Z,1.80
2018-02-04T17:44:00.346Z,1.80
2018-02-04T17:46:27.792Z,1.80
2018-02-04T17:48:55.262Z,1.90
2018-02-04T17:51:22.723Z,1.90
2018-02-04T17:53:50.192Z,1.80
2018-02-04T17:56:17.649Z,1.80
2018-02-04T17:58:45.099Z,1.80
2018-02-04T18:01:12.595Z,1.80
2018-02-04T18:03:40.076Z,1.80
2018-02-04T18:06:07.577Z,1.80
2018-02-04T18:08:35.043Z,1.80
2018-02-04T18:11:03.279Z,1.80
2018-02-04T18:13:30.751Z,1.70
2018-02-04T18:15:58.211Z,1.70
2018-02-04T18:18:25.663Z,1.60
2018-02-04T18:20:53.140Z,1.60
2018-02-04T18:23:20.606Z,1.50
2018-02-04T18:25:48.042Z,1.40
2018-02-04T18:28:15.540Z,1.40
2018-02-04T18:30:43.797Z,1.40
2018-02-04T18:33:11.267Z,1.40
2018-02-04T18:35:39.504Z,1.50
2018-02-04T18:38:06.951Z,1.40
2018-02-04T18:40:34.456Z,1.50
2018-02-04T18:43:01.901Z,1.50
2018-02-04T18:45:29.460Z,1.60
2018-02-04T18:47:57.140Z,1.60
2018-02-04T18:50:25.416Z,1.60
2018-02-04T18:52:52.856Z,1.60
2018-02-04T18:55:20.332Z,1.50
2018-02-04T18:57:48.615Z,1.40
2018-02-04T19:00:17.026Z,1.30
2018-02-04T19:02:44.503Z,1.30
2018-02-04T19:05:11.975Z,1.20
2018-02-04T19:07:39.441Z,1.20
2018-02-04T19:10:07.060Z,1.10
2018-02-04T19:12:34.663Z,1.10
2018-02-04T19:15:02.182Z,1.10
2018-02-04T19:17:29.695Z,1.00
2018-02-04T19:19:57.200Z,1.00
2018-02-04T19:22:24.706Z,1.00
2018-02-04T19:24:52.260Z,0.90
2018-02-04T19:27:19.771Z,0.90
2018-02-04T19:29:47.292Z,0.80
2018-02-04T19:32:14.847Z,0.90
2018-02-04T19:34:42.509Z,0.80
2018-02-04T19:37:09.971Z,0.80
2018-02-04T19:39:37.854Z,0.80
2018-02-04T19:42:06.065Z,0.90
2018-02-04T19:44:33.541Z,0.90
2018-02-04T19:47:01.054Z,0.90
2018-02-04T19:49:29.315Z,1.00
2018-02-04T19:51:57.106Z,1.00
2018-02-04T19:54:25.404Z,1.00
2018-02-04T19:56:53.112Z,1.00
2018-02-04T19:59:20.575Z,1.00
2018-02-04T20:01:48.038Z,1.00
2018-02-04T20:04:15.806Z,1.00
2018-02-04T20:06:44.048Z,1.10
2018-02-04T20:09:11.619Z,1.10
2018-02-04T20:11:39.104Z,1.00
2018-02-04T20:14:07.456Z,1.10
2018-02-04T20:16:34.928Z,1.10
2018-02-04T20:19:02.457Z,1.10
2018-02-04T20:21:29.941Z,1.10
2018-02-04T20:23:57.814Z,1.10
2018-02-04T20:26:25.358Z,1.10
2018-02-04T20:28:52.844Z,1.00
2018-02-04T20:31:20.346Z,1.00
2018-02-04T20:34:13.466Z,1.00
2018-02-04T20:36:41.763Z,0.90
2018-02-04T20:39:09.270Z,0.80
2018-02-04T20:41:37.136Z,0.80
2018-02-04T20:44:04.579Z,0.80
2018-02-04T20:46:32.079Z,0.80
2018-02-04T20:48:59.543Z,0.90
2018-02-04T20:51:27.873Z,0.80
2018-02-04T20:53:55.356Z,0.80
2018-02-04T20:56:23.654Z,0.80
2018-02-04T20:58:51.111Z,0.70
2018-02-04T21:01:19.394Z,0.80
2018-02-04T21:03:47.659Z,0.80
2018-02-04T21:06:15.123Z,0.80
2018-02-04T21:08:43.370Z,0.80
2018-02-04T21:11:10.874Z,0.70
2018-02-04T21:13:39.148Z,0.80
2018-02-04T21:16:07.383Z,0.70
2018-02-04T21:18:35.239Z,0.70
2018-02-04T21:21:02.875Z,0.70
2018-02-04T21:23:30.334Z,0.70
2018-02-04T21:25:57.902Z,0.70
2018-02-04T21:28:25.415Z,0.70
2018-02-04T21:30:52.899Z,0.60
2018-02-04T21:33:21.149Z,0.50
2018-02-04T21:35:48.868Z,0.50
2018-02-04T21:38:16.344Z,0.50
2018-02-04T21:40:43.854Z,0.50
2018-02-04T21:43:11.365Z,0.50
2018-02-04T21:45:39.003Z,0.50
2018-02-04T21:48:06.508Z,0.50
2018-02-04T21:50:33.993Z,0.50
2018-02-04T21:53:02.351Z,0.60
2018-02-04T21:55:29.885Z,0.50
2018-02-04T21:57:58.063Z,0.50
2018-02-04T22:00:25.760Z,0.50
2018-02-04T22:02:53.253Z,0.40
2018-02-04T22:05:21.544Z,0.40
2018-02-04T22:07:49.052Z,0.40
2018-02-04T22:10:17.611Z,0.60
2018-02-04T22:12:45.089Z,0.60
2018-02-04T22:15:12.695Z,0.60
2018-02-04T22:17:40.205Z,0.60
2018-02-04T22:20:07.709Z,0.70
2018-02-04T22:22:35.457Z,0.80
2018-02-04T22:25:03.763Z,0.80
2018-02-04T22:27:31.361Z,0.80
2018-02-04T22:29:58.904Z,0.90
2018-02-04T22:32:26.401Z,0.90
2018-02-04T22:34:54.671Z,0.90
2018-02-04T22:37:22.142Z,0.90
2018-02-04T22:39:50.472Z,0.90
2018-02-04T22:42:19.142Z,0.90
2018-02-04T22:44:46.623Z,0.80
2018-02-04T22:47:14.103Z,0.80
2018-02-04T22:49:41.658Z,0.80
2018-02-04T22:52:09.177Z,0.80
2018-02-04T22:54:36.627Z,0.90
2018-02-04T22:57:04.115Z,0.90
2018-02-04T22:59:31.667Z,0.90
2018-02-04T23:01:59.205Z,1.00
2018-02-04T23:04:26.665Z,1.00
2018-02-04T23:06:55.008Z,1.00
2018-02-04T23:09:23.418Z,1.00
2018-02-04T23:11:51.007Z,1.00
2018-02-04T23:14:18.605Z,1.10
2018-02-04T23:16:46.839Z,1.20
2018-02-04T23:19:14.446Z,1.20
2018-02-04T23:21:42.731Z,1.20
2018-02-04T23:24:10.224Z,1.20
2018-02-04T23:26:37.729Z,1.20
2018-02-04T23:29:05.288Z,1.30
2018-02-04T23:31:32.806Z,1.20
2018-02-04T23:34:00.255Z,1.20
2018-02-04T23:36:27.742Z,1.20
2018-02-04T23:38:55.279Z,1.20
2018-02-04T23:41:22.765Z,1.20
2018-02-04T23:43:51.056Z,1.10
2018-02-04T23:46:19.959Z,1.10
2018-02-04T23:48:47.519Z,1.10
2018-02-04T23:51:14.982Z,1.10
2018-02-04T23:53:42.471Z,1.00
2018-02-04T23:56:09.963Z,1.00
2018-02-04T23:58:37.424Z,0.90
